Terminal Aerodrome Forecast
Issued by NWS

Home | Current Version | Previous Version | Text Only | Print | Product List | Glossary On
Versions: 1 2 3 4 5 6 7 8 9 10 11 12 13 14 15 16
000
FTAK31 PAJN 201700
TAFAWG
TAF
PAWG 201734Z 2018/2118 12015G25KT P6SM -RA FEW015 SCT035 OVC050
      WS020/18035KT
      TEMPO 2018/2022 15010KT 6SM RA BR SCT010 BKN025 OVC040
     FM202200 15006KT 6SM -RA SCT015 OVC025
     FM210100 10005KT 4SM RA BR BKN015 OVC025
     FM210900 13010KT 2SM RA BR BKN006 OVC015=

USA.gov is the U.S. government's official web portal to all federal, state and local government web resources and services.